Time;durP1;ratioP1;P1;durP2;ratioP2;P2;SDS_P1;SDS_P2;PMS_P1;PMS_P2;Temp;Humidity;BMP_temperature;BMP_pressure;BME280_temperature;BME280_humidity;BME280_pressure;Samples;Min_cycle;Max_cycle;Signal;HPM_P1;HPM_P2
2022/03/01 00:03:43;;;;;;;5.77;2.23;;;;;;;;;;10266442;28;20050;-65
2022/03/01 00:08:46;;;;;;;12.10;3.27;;;;;;;;;;10255294;28;20085;-66
2022/03/01 00:13:51;;;;;;;6.87;2.07;;;;;;;;;;10269851;28;20043;-66
2022/03/01 00:18:53;;;;;;;;;;;;;;;;;;10279373;28;20051;-66
2022/03/01 00:23:57;;;;;;;8.43;3.33;;;;;;;;;;10277702;28;19926;-67
2022/03/01 00:29:01;;;;;;;6.13;2.07;;;;;;;;;;10279349;28;20051;-65
2022/03/01 00:34:04;;;;;;;10.57;3.10;;;;;;;;;;10268375;28;20045;-67
2022/03/01 00:39:07;;;;;;;7.43;2.63;;;;;;;;;;10276383;28;20187;-67
2022/03/01 00:44:12;;;;;;;7.83;2.77;;;;;;;;;;10272836;28;20053;-66
2022/03/01 00:49:18;;;;;;;12.97;3.50;;;;;;;;;;10264526;28;20082;-66
2022/03/01 00:54:22;;;;;;;9.73;3.07;;;;;;;;;;10280136;28;20119;-66
2022/03/01 00:59:26;;;;;;;11.97;3.20;;;;;;;;;;10266089;28;20125;-65
2022/03/01 01:04:29;;;;;;;;;;;;;;;;;;10263652;28;20039;-65
2022/03/01 01:09:32;;;;;;;4.97;2.80;;;;;;;;;;10276439;28;19922;-66
2022/03/01 01:14:36;;;;;;;5.13;1.87;;;;;;;;;;10272268;28;20046;-66
2022/03/01 01:19:39;;;;;;;9.10;3.10;;;;;;;;;;10264805;28;20051;-65
2022/03/01 01:24:47;;;;;;;8.00;3.17;;;;;;;;;;10275183;28;20191;-66
2022/03/01 01:29:52;;;;;;;5.55;2.20;;;;;;;;;;10260801;28;20073;-65
2022/03/01 01:34:55;;;;;;;9.15;3.50;;;;;;;;;;10265733;28;20512;-67
2022/03/01 01:39:58;;;;;;;5.63;2.30;;;;;;;;;;10271869;28;20080;-65
2022/03/01 01:45:05;;;;;;;5.32;1.63;;;;;;;;;;10277438;28;20061;-66
2022/03/01 01:50:21;;;;;;;8.40;3.60;;;;;;;;;;10256530;28;20122;-65
2022/03/01 01:55:26;;;;;;;10.70;3.88;;;;;;;;;;10254473;28;20376;-65
2022/03/01 02:00:33;;;;;;;7.03;3.17;;;;;;;;;;10262964;28;20043;-66
2022/03/01 02:05:36;;;;;;;9.90;2.90;;;;;;;;;;10254086;28;20069;-65
2022/03/01 02:10:40;;;;;;;4.73;2.40;;;;;;;;;;10272266;28;20038;-65
2022/03/01 02:15:46;;;;;;;4.53;1.73;;;;;;;;;;10257392;28;20087;-66
2022/03/01 02:20:51;;;;;;;6.57;2.40;;;;;;;;;;10264513;28;20371;-66
2022/03/01 02:25:56;;;;;;;6.80;2.03;;;;;;;;;;10264006;28;20053;-66
2022/03/01 02:31:02;;;;;;;5.60;3.03;;;;;;;;;;10259005;28;20043;-65
2022/03/01 02:36:09;;;;;;;6.03;2.10;;;;;;;;;;10256296;28;20121;-66
2022/03/01 02:41:12;;;;;;;3.97;2.43;;;;;;;;;;10271613;28;20034;-65
2022/03/01 02:46:15;;;;;;;5.97;2.67;;;;;;;;;;10256668;28;20042;-66
2022/03/01 02:51:20;;;;;;;6.57;2.20;;;;;;;;;;10258455;28;20050;-66
2022/03/01 02:56:24;;;;;;;11.43;2.90;;;;;;;;;;10274555;28;20045;-67
2022/03/01 03:01:27;;;;;;;2.83;1.52;;;;;;;;;;10256138;28;20055;-65
2022/03/01 03:06:35;;;;;;;11.13;3.17;;;;;;;;;;10271792;28;20038;-66
2022/03/01 03:11:38;;;;;;;8.07;3.27;;;;;;;;;;10257360;28;20391;-64
2022/03/01 03:16:42;;;;;;;5.03;1.57;;;;;;;;;;10269757;28;20039;-66
2022/03/01 03:21:47;;;;;;;5.27;1.97;;;;;;;;;;10268631;28;20035;-66
2022/03/01 03:26:50;;;;;;;5.57;1.73;;;;;;;;;;10260533;28;20496;-67
2022/03/01 03:31:57;;;;;;;7.32;2.45;;;;;;;;;;10268037;28;20062;-66
2022/03/01 03:37:01;;;;;;;11.53;3.03;;;;;;;;;;10272122;28;20046;-65
2022/03/01 03:42:04;;;;;;;4.67;2.20;;;;;;;;;;10252896;28;20061;-66
2022/03/01 03:47:09;;;;;;;3.20;1.60;;;;;;;;;;10276526;28;20109;-67
2022/03/01 03:52:14;;;;;;;3.67;2.00;;;;;;;;;;10282277;28;20034;-67
2022/03/01 03:57:18;;;;;;;6.63;2.77;;;;;;;;;;10272461;28;20093;-65
2022/03/01 04:02:21;;;;;;;2.03;1.45;;;;;;;;;;10279965;28;20045;-66
2022/03/01 04:07:26;;;;;;;4.63;2.53;;;;;;;;;;10260810;28;20467;-67
2022/03/01 04:12:29;;;;;;;5.07;1.93;;;;;;;;;;10270187;28;20297;-64
2022/03/01 04:17:35;;;;;;;7.00;2.50;;;;;;;;;;10279496;28;20467;-66
2022/03/01 04:22:40;;;;;;;7.70;3.00;;;;;;;;;;10278528;28;20043;-66
2022/03/01 04:27:44;;;;;;;4.57;2.10;;;;;;;;;;10275540;28;20043;-66
2022/03/01 04:32:48;;;;;;;;;;;;;;;;;;10259483;28;20042;-67
2022/03/01 04:37:53;;;;;;;2.47;1.00;;;;;;;;;;10280705;28;19968;-67
2022/03/01 04:42:56;;;;;;;2.27;0.57;;;;;;;;;;10263721;28;20452;-68
2022/03/01 04:48:00;;;;;;;2.87;1.40;;;;;;;;;;10287519;28;20034;-64
2022/03/01 04:53:04;;;;;;;7.70;2.30;;;;;;;;;;10279848;28;20081;-67
2022/03/01 04:58:08;;;;;;;8.13;2.23;;;;;;;;;;10281263;28;20050;-66
2022/03/01 05:03:10;;;;;;;3.70;2.30;;;;;;;;;;10260549;23;20051;-69
2022/03/01 05:08:15;;;;;;;5.68;1.85;;;;;;;;;;10245825;28;20037;-69
2022/03/01 05:13:19;;;;;;;0.87;0.83;;;;;;;;;;10246459;28;20062;-69
2022/03/01 05:18:22;;;;;;;7.30;1.43;;;;;;;;;;10246662;28;20109;-69
2022/03/01 05:23:28;;;;;;;6.88;1.52;;;;;;;;;;10245869;28;20484;-69
2022/03/01 05:28:31;;;;;;;1.30;0.73;;;;;;;;;;10246340;29;20420;-69
2022/03/01 05:33:34;;;;;;;4.97;1.67;;;;;;;;;;10239729;28;20043;-68
2022/03/01 05:38:39;;;;;;;10.83;2.60;;;;;;;;;;10227128;29;20063;-68
2022/03/01 05:43:43;;;;;;;1.90;1.37;;;;;;;;;;10243179;28;20055;-68
2022/03/01 05:48:49;;;;;;;8.23;2.40;;;;;;;;;;10228003;29;20043;-68
2022/03/01 05:53:58;;;;;;;3.67;1.57;;;;;;;;;;10231077;29;20495;-69
2022/03/01 05:59:01;;;;;;;5.40;2.50;;;;;;;;;;10244519;29;20488;-69
2022/03/01 06:04:05;;;;;;;2.87;1.90;;;;;;;;;;10245099;28;20082;-70
2022/03/01 06:09:09;;;;;;;0.53;0.43;;;;;;;;;;10233578;28;20039;-69
2022/03/01 06:14:13;;;;;;;3.50;1.57;;;;;;;;;;10243375;28;20039;-68
2022/03/01 06:19:18;;;;;;;5.43;2.20;;;;;;;;;;10228977;28;20412;-69
2022/03/01 06:24:23;;;;;;;4.97;1.88;;;;;;;;;;10227983;28;20047;-69
2022/03/01 06:29:26;;;;;;;2.53;1.77;;;;;;;;;;10245544;29;20032;-69
2022/03/01 06:34:33;;;;;;;1.50;0.90;;;;;;;;;;10231469;28;20371;-69
2022/03/01 06:39:58;;;;;;;8.77;2.20;;;;;;;;;;10226568;28;20042;-69
2022/03/01 06:45:01;;;;;;;5.67;2.27;;;;;;;;;;10245159;28;20066;-69
2022/03/01 06:50:04;;;;;;;;;;;;;;;;;;10251436;28;20031;-69
2022/03/01 06:55:21;;;;;;;7.63;3.03;;;;;;;;;;10252152;28;20365;-70
2022/03/01 07:00:25;;;;;;;9.02;3.45;;;;;;;;;;10241971;28;20396;-69
2022/03/01 07:05:29;;;;;;;8.00;3.55;;;;;;;;;;10243027;28;20551;-70
2022/03/01 07:10:35;;;;;;;6.88;2.63;;;;;;;;;;10226234;29;20908;-69
2022/03/01 07:15:38;;;;;;;5.55;3.00;;;;;;;;;;10245508;28;20105;-69
2022/03/01 07:20:43;;;;;;;4.27;2.43;;;;;;;;;;10244975;28;20608;-70
2022/03/01 07:25:48;;;;;;;9.57;3.42;;;;;;;;;;10246186;29;20106;-69
2022/03/01 07:30:51;;;;;;;7.47;4.28;;;;;;;;;;10242775;28;20043;-69
2022/03/01 07:35:54;;;;;;;11.47;5.73;;;;;;;;;;10240736;28;20081;-70
2022/03/01 07:40:59;;;;;;;5.43;3.33;;;;;;;;;;10232277;28;20449;-69
2022/03/01 07:46:03;;;;;;;12.02;4.28;;;;;;;;;;10242725;28;20053;-71
2022/03/01 07:51:06;;;;;;;10.02;4.60;;;;;;;;;;10245928;28;20401;-69
2022/03/01 07:56:11;;;;;;;12.30;4.50;;;;;;;;;;10220570;29;20039;-68
2022/03/01 08:01:14;;;;;;;7.97;3.15;;;;;;;;;;10239822;28;20313;-70
2022/03/01 08:06:18;;;;;;;9.82;5.20;;;;;;;;;;10223163;28;20155;-71
2022/03/01 08:11:21;;;;;;;;;;;;;;;;;;10242407;28;20032;-70
2022/03/01 08:16:26;;;;;;;11.32;4.72;;;;;;;;;;10241965;29;19930;-69
2022/03/01 08:21:30;;;;;;;6.53;3.47;;;;;;;;;;10231485;28;20075;-68
2022/03/01 08:26:35;;;;;;;10.63;4.78;;;;;;;;;;10237144;28;20043;-70
2022/03/01 08:31:43;;;;;;;11.95;5.43;;;;;;;;;;10253682;28;20043;-71
2022/03/01 08:36:47;;;;;;;10.32;5.05;;;;;;;;;;10232194;29;20035;-70
2022/03/01 08:41:53;;;;;;;;;;;;;;;;;;10235083;28;20059;-70
2022/03/01 08:46:57;;;;;;;10.95;5.80;;;;;;;;;;10233262;29;20514;-70
2022/03/01 08:52:01;;;;;;;9.15;5.40;;;;;;;;;;10225062;28;20070;-69
2022/03/01 08:57:04;;;;;;;9.70;5.70;;;;;;;;;;10234019;28;20142;-70
2022/03/01 09:02:09;;;;;;;11.38;5.15;;;;;;;;;;10228623;28;20039;-70
2022/03/01 09:07:12;;;;;;;9.43;5.57;;;;;;;;;;10245920;28;20090;-70
2022/03/01 09:12:16;;;;;;;11.00;5.32;;;;;;;;;;10247822;28;20039;-70
2022/03/01 09:17:21;;;;;;;8.07;5.38;;;;;;;;;;10249605;28;20302;-70
2022/03/01 09:22:24;;;;;;;13.13;5.70;;;;;;;;;;10243686;28;20035;-68
2022/03/01 09:27:28;;;;;;;8.60;5.47;;;;;;;;;;10244791;29;20090;-68
2022/03/01 09:32:33;;;;;;;7.18;4.95;;;;;;;;;;10227197;28;20069;-70
2022/03/01 09:37:36;;;;;;;7.60;4.78;;;;;;;;;;10229654;29;20492;-70
2022/03/01 09:42:40;;;;;;;13.05;5.00;;;;;;;;;;10225252;28;20246;-69
2022/03/01 09:47:45;;;;;;;9.20;4.75;;;;;;;;;;10243662;29;20059;-69
2022/03/01 09:52:49;;;;;;;7.97;4.88;;;;;;;;;;10228629;28;20051;-69
2022/03/01 09:57:52;;;;;;;9.63;5.55;;;;;;;;;;10231464;28;20051;-71
2022/03/01 10:02:58;;;;;;;9.13;5.05;;;;;;;;;;10225917;28;20047;-69
2022/03/01 10:08:09;;;;;;;8.95;4.57;;;;;;;;;;10243684;28;20039;-70
2022/03/01 10:13:15;;;;;;;10.80;5.40;;;;;;;;;;10245853;28;20080;-69
2022/03/01 10:18:21;;;;;;;8.27;5.20;;;;;;;;;;10242723;29;20507;-70
2022/03/01 10:23:24;;;;;;;11.20;5.70;;;;;;;;;;10225810;28;20693;-69
2022/03/01 10:28:34;;;;;;;9.73;5.43;;;;;;;;;;10230365;29;20031;-69
2022/03/01 10:33:40;;;;;;;6.20;3.80;;;;;;;;;;10231881;28;20039;-70
2022/03/01 10:38:53;;;;;;;8.38;5.32;;;;;;;;;;10244500;29;20047;-69
2022/03/01 10:43:59;;;;;;;11.98;5.57;;;;;;;;;;10227516;28;20071;-69
2022/03/01 10:49:05;;;;;;;6.15;3.60;;;;;;;;;;10245288;28;20090;-69
2022/03/01 10:54:08;;;;;;;6.40;4.40;;;;;;;;;;10242495;28;20099;-69
2022/03/01 10:59:12;;;;;;;8.13;5.18;;;;;;;;;;10245169;28;20031;-71
2022/03/01 11:04:17;;;;;;;9.52;5.43;;;;;;;;;;10259897;23;20569;-70
2022/03/01 11:09:28;;;;;;;5.50;3.40;;;;;;;;;;10278585;28;20122;-70
2022/03/01 11:14:32;;;;;;;4.85;3.30;;;;;;;;;;10267319;28;20043;-70
2022/03/01 11:19:41;;;;;;;5.60;3.95;;;;;;;;;;10277227;28;20039;-71
2022/03/01 11:24:45;;;;;;;9.63;4.30;;;;;;;;;;10275700;28;20061;-71
2022/03/01 11:29:51;;;;;;;5.90;3.67;;;;;;;;;;10261242;28;20435;-72
2022/03/01 11:35:02;;;;;;;6.28;3.85;;;;;;;;;;10251968;28;20438;-69
2022/03/01 11:40:06;;;;;;;8.15;4.20;;;;;;;;;;10256561;28;20499;-70
2022/03/01 11:45:11;;;;;;;6.32;4.13;;;;;;;;;;10251495;28;20082;-70
2022/03/01 11:50:18;;;;;;;6.47;4.38;;;;;;;;;;10275083;28;20061;-70
2022/03/01 11:55:21;;;;;;;9.27;4.38;;;;;;;;;;10259797;28;20454;-70
2022/03/01 12:00:28;;;;;;;7.88;4.25;;;;;;;;;;10273732;28;20376;-72
2022/03/01 12:05:33;;;;;;;8.15;4.40;;;;;;;;;;10275002;28;20458;-71
2022/03/01 12:10:37;;;;;;;6.45;3.67;;;;;;;;;;10284775;28;20059;-70
2022/03/01 12:15:41;;;;;;;5.10;3.33;;;;;;;;;;10271336;28;20101;-72
2022/03/01 12:20:46;;;;;;;8.35;4.03;;;;;;;;;;10284544;28;20061;-71
2022/03/01 12:25:50;;;;;;;5.47;3.83;;;;;;;;;;10279440;28;20422;-71
2022/03/01 12:30:52;;;;;;;;;;;;;;;;;;10287248;28;20055;-71
2022/03/01 12:36:03;;;;;;;7.78;3.75;;;;;;;;;;10261453;28;19933;-70
2022/03/01 12:41:09;;;;;;;6.88;3.55;;;;;;;;;;10261441;28;20047;-70
2022/03/01 12:46:13;;;;;;;6.93;4.43;;;;;;;;;;10283697;28;20070;-71
2022/03/01 12:51:18;;;;;;;6.45;4.10;;;;;;;;;;10270305;28;20034;-70
2022/03/01 12:56:22;;;;;;;7.22;4.15;;;;;;;;;;10288679;28;20266;-71
2022/03/01 13:01:25;;;;;;;6.20;3.92;;;;;;;;;;10276801;28;20399;-72
2022/03/01 13:06:31;;;;;;;5.95;3.70;;;;;;;;;;10265425;28;20483;-71
2022/03/01 13:11:34;;;;;;;7.40;4.00;;;;;;;;;;10283060;28;20046;-71
2022/03/01 13:16:40;;;;;;;7.32;3.85;;;;;;;;;;10266987;28;20101;-71
2022/03/01 13:21:46;;;;;;;7.93;3.67;;;;;;;;;;10279369;28;20409;-72
2022/03/01 13:26:50;;;;;;;6.68;4.00;;;;;;;;;;10268375;28;20091;-72
2022/03/01 13:32:01;;;;;;;8.07;3.90;;;;;;;;;;10261520;28;20364;-71
2022/03/01 13:37:09;;;;;;;6.13;3.67;;;;;;;;;;10278455;28;20050;-71
2022/03/01 13:42:13;;;;;;;6.63;4.03;;;;;;;;;;10269145;28;20134;-71
2022/03/01 13:47:19;;;;;;;6.38;3.55;;;;;;;;;;10274355;28;20192;-70
2022/03/01 13:52:24;;;;;;;6.22;3.53;;;;;;;;;;10277844;28;20503;-72
2022/03/01 13:57:29;;;;;;;6.20;3.80;;;;;;;;;;10261154;28;20100;-71
2022/03/01 14:02:32;;;;;;;5.05;3.22;;;;;;;;;;10278784;28;20037;-71
2022/03/01 14:07:37;;;;;;;7.07;3.83;;;;;;;;;;10259948;28;20043;-71
2022/03/01 14:12:43;;;;;;;7.28;3.58;;;;;;;;;;10274341;28;20066;-70
2022/03/01 14:17:57;;;;;;;8.68;3.80;;;;;;;;;;10263439;28;20126;-72
2022/03/01 14:23:02;;;;;;;6.50;3.85;;;;;;;;;;10258389;28;20074;-71
2022/03/01 14:28:06;;;;;;;7.15;4.10;;;;;;;;;;10269701;28;20134;-69
2022/03/01 14:33:10;;;;;;;5.72;3.50;;;;;;;;;;10279047;28;20047;-70
2022/03/01 14:38:14;;;;;;;5.05;3.40;;;;;;;;;;10277354;28;20411;-72
2022/03/01 14:43:23;;;;;;;7.32;3.38;;;;;;;;;;10282163;28;20055;-70
2022/03/01 14:48:26;;;;;;;6.43;2.53;;;;;;;;;;10278685;28;20047;-69
2022/03/01 14:53:31;;;;;;;5.43;3.15;;;;;;;;;;10276790;28;20043;-70
2022/03/01 14:58:35;;;;;;;7.32;3.42;;;;;;;;;;10279894;28;20646;-72
2022/03/01 15:03:38;;;;;;;7.23;3.33;;;;;;;;;;10254548;28;20135;-70
2022/03/01 15:08:43;;;;;;;6.40;3.25;;;;;;;;;;10273793;28;20093;-69
2022/03/01 15:13:46;;;;;;;7.90;3.85;;;;;;;;;;10262813;28;20046;-71
2022/03/01 15:18:49;;;;;;;7.77;3.70;;;;;;;;;;10275662;28;20519;-70
2022/03/01 15:23:54;;;;;;;8.40;3.77;;;;;;;;;;10275835;28;20051;-71
2022/03/01 15:28:57;;;;;;;7.45;3.88;;;;;;;;;;10260809;28;20125;-70
2022/03/01 15:34:00;;;;;;;10.03;3.97;;;;;;;;;;10262969;28;20051;-70
2022/03/01 15:39:05;;;;;;;6.97;3.67;;;;;;;;;;10275019;28;20062;-71
2022/03/01 15:44:08;;;;;;;11.00;4.05;;;;;;;;;;10256343;28;20039;-71
2022/03/01 15:49:11;;;;;;;8.80;4.40;;;;;;;;;;10273290;28;20042;-71
2022/03/01 15:54:16;;;;;;;11.68;4.50;;;;;;;;;;10274041;28;20034;-70
2022/03/01 15:59:19;;;;;;;9.10;4.00;;;;;;;;;;10260067;28;20455;-69
2022/03/01 16:04:22;;;;;;;9.02;4.18;;;;;;;;;;10271706;28;20030;-70
2022/03/01 16:09:26;;;;;;;6.83;3.67;;;;;;;;;;10269577;28;20476;-69
2022/03/01 16:14:31;;;;;;;7.60;4.00;;;;;;;;;;10275339;28;20081;-70
2022/03/01 16:19:34;;;;;;;8.95;3.90;;;;;;;;;;10277871;28;20031;-69
2022/03/01 16:24:38;;;;;;;11.70;4.03;;;;;;;;;;10253881;28;20070;-70
2022/03/01 16:29:41;;;;;;;8.88;3.85;;;;;;;;;;10275038;28;20054;-70
2022/03/01 16:34:46;;;;;;;14.43;4.72;;;;;;;;;;10271161;28;20408;-70
2022/03/01 16:39:50;;;;;;;8.68;3.55;;;;;;;;;;10260122;28;20045;-71
2022/03/01 16:44:53;;;;;;;12.07;4.13;;;;;;;;;;10277753;28;20399;-70
2022/03/01 16:49:56;;;;;;;12.10;4.28;;;;;;;;;;10272038;28;20035;-70
2022/03/01 16:55:00;;;;;;;10.45;3.50;;;;;;;;;;10269212;28;20101;-69
2022/03/01 17:00:04;;;;;;;6.45;3.35;;;;;;;;;;10274440;28;20097;-69
2022/03/01 17:05:09;;;;;;;6.20;3.15;;;;;;;;;;10254910;23;20047;-73
2022/03/01 17:10:13;;;;;;;6.97;3.10;;;;;;;;;;10246058;28;20054;-71
2022/03/01 17:15:19;;;;;;;8.77;3.50;;;;;;;;;;10248422;28;20043;-74
2022/03/01 17:20:23;;;;;;;7.67;3.23;;;;;;;;;;10246140;28;20037;-72
2022/03/01 17:25:27;;;;;;;10.70;3.33;;;;;;;;;;10232425;28;20567;-74
2022/03/01 17:30:30;;;;;;;5.97;3.03;;;;;;;;;;10230368;28;20515;-73
2022/03/01 17:35:33;;;;;;;7.33;3.47;;;;;;;;;;10230292;28;20059;-74
2022/03/01 17:40:53;;;;;;;9.27;3.57;;;;;;;;;;10249720;23;20046;-71
2022/03/01 17:45:56;;;;;;;;;;;;;;;;;;10252816;28;20503;-70
2022/03/01 17:50:59;;;;;;;7.40;2.90;;;;;;;;;;10264781;23;20369;-71
2022/03/01 17:56:03;;;;;;;6.90;2.80;;;;;;;;;;10286219;28;20035;-70
2022/03/01 18:01:07;;;;;;;8.87;3.67;;;;;;;;;;10261016;28;20034;-71
2022/03/01 18:06:10;;;;;;;8.60;3.35;;;;;;;;;;10276178;28;20077;-70
2022/03/01 18:11:14;;;;;;;6.23;3.40;;;;;;;;;;10277985;28;20042;-69
2022/03/01 18:16:17;;;;;;;9.07;3.30;;;;;;;;;;10264206;28;20157;-69
2022/03/01 18:21:25;;;;;;;9.00;3.27;;;;;;;;;;10272800;28;20066;-70
2022/03/01 18:26:33;;;;;;;6.50;3.10;;;;;;;;;;10279453;28;20083;-68
2022/03/01 18:31:36;;;;;;;5.70;2.80;;;;;;;;;;10275060;28;20082;-72
2022/03/01 18:36:40;;;;;;;5.65;2.35;;;;;;;;;;10260400;28;20030;-68
2022/03/01 18:41:44;;;;;;;9.80;4.33;;;;;;;;;;10272695;28;20043;-69
2022/03/01 18:46:47;;;;;;;8.57;3.67;;;;;;;;;;10276609;28;20045;-69
2022/03/01 18:51:50;;;;;;;9.50;3.80;;;;;;;;;;10266021;28;20053;-72
2022/03/01 18:56:55;;;;;;;7.77;3.67;;;;;;;;;;10279932;28;20038;-71
2022/03/01 19:01:59;;;;;;;7.33;3.30;;;;;;;;;;10263293;28;20077;-68
2022/03/01 19:07:02;;;;;;;8.48;3.47;;;;;;;;;;10263937;28;20081;-69
2022/03/01 19:12:09;;;;;;;7.80;3.60;;;;;;;;;;10264860;28;20553;-69
2022/03/01 19:17:11;;;;;;;11.27;4.10;;;;;;;;;;10277897;28;20041;-69
2022/03/01 19:22:16;;;;;;;8.40;3.43;;;;;;;;;;10255838;28;20058;-70
2022/03/01 19:27:20;;;;;;;6.87;3.67;;;;;;;;;;10263712;28;20075;-68
2022/03/01 19:32:24;;;;;;;9.83;3.57;;;;;;;;;;10269084;28;20034;-70
2022/03/01 19:37:27;;;;;;;10.83;4.03;;;;;;;;;;10275494;28;20050;-72
2022/03/01 19:42:32;;;;;;;13.53;3.30;;;;;;;;;;10287088;28;20105;-70
2022/03/01 19:47:40;;;;;;;;;;;;;;;;;;10264001;28;20043;-69
2022/03/01 19:52:43;;;;;;;9.90;4.03;;;;;;;;;;10269116;28;19927;-69
2022/03/01 19:57:48;;;;;;;10.50;3.50;;;;;;;;;;10270631;28;20039;-70
2022/03/01 20:02:53;;;;;;;11.00;3.93;;;;;;;;;;10254299;28;20050;-69
2022/03/01 20:07:57;;;;;;;10.07;4.17;;;;;;;;;;10256624;28;20051;-70
2022/03/01 20:13:02;;;;;;;11.90;4.38;;;;;;;;;;10260283;28;20518;-69
2022/03/01 20:18:06;;;;;;;8.93;4.13;;;;;;;;;;10264136;28;20063;-68
2022/03/01 20:23:10;;;;;;;13.32;5.45;;;;;;;;;;10257488;28;20133;-70
2022/03/01 20:28:13;;;;;;;;;;;;;;;;;;10282977;28;20078;-69
2022/03/01 20:33:18;;;;;;;3.87;2.50;;;;;;;;;;10271229;28;19922;-70
2022/03/01 20:38:21;;;;;;;;;;;;;;;;;;10270462;28;20401;-70
2022/03/01 20:43:24;;;;;;;8.43;3.73;;;;;;;;;;10277888;28;20411;-66
2022/03/01 20:48:28;;;;;;;4.13;1.97;;;;;;;;;;10279068;28;20070;-70
2022/03/01 20:53:32;;;;;;;;;;;;;;;;;;10283758;28;20039;-70
2022/03/01 20:58:35;;;;;;;4.97;2.30;;;;;;;;;;10276531;28;19922;-68
2022/03/01 21:03:40;;;;;;;4.90;2.28;;;;;;;;;;10288103;28;20042;-69
2022/03/01 21:08:43;;;;;;;8.13;3.00;;;;;;;;;;10279342;28;20042;-70
2022/03/01 21:13:50;;;;;;;6.53;2.60;;;;;;;;;;10259639;28;20047;-70
2022/03/01 21:18:54;;;;;;;6.80;3.20;;;;;;;;;;10276530;28;20035;-69
2022/03/01 21:23:58;;;;;;;9.10;2.63;;;;;;;;;;10279172;28;20038;-70
2022/03/01 21:29:01;;;;;;;7.82;3.40;;;;;;;;;;10274582;28;20109;-68
2022/03/01 21:34:07;;;;;;;6.43;3.05;;;;;;;;;;10259559;28;20479;-69
2022/03/01 21:39:12;;;;;;;6.03;2.47;;;;;;;;;;10266533;28;20039;-69
2022/03/01 21:44:16;;;;;;;;;;;;;;;;;;10279541;28;20492;-71
2022/03/01 21:49:20;;;;;;;7.13;3.87;;;;;;;;;;10278370;28;20451;-68
2022/03/01 21:54:24;;;;;;;4.73;2.07;;;;;;;;;;10283248;28;20039;-71
2022/03/01 21:59:27;;;;;;;3.07;1.50;;;;;;;;;;10265676;28;20081;-69
2022/03/01 22:04:32;;;;;;;7.97;2.65;;;;;;;;;;10261145;28;20031;-69
2022/03/01 22:09:35;;;;;;;8.68;3.78;;;;;;;;;;10273218;28;20046;-71
2022/03/01 22:14:37;;;;;;;9.50;4.07;;;;;;;;;;10258398;28;20440;-70
2022/03/01 22:19:42;;;;;;;7.85;3.75;;;;;;;;;;10275612;28;20693;-70
2022/03/01 22:24:46;;;;;;;9.50;2.70;;;;;;;;;;10289900;28;20106;-70
2022/03/01 22:29:49;;;;;;;7.87;3.67;;;;;;;;;;10265261;28;20488;-69
2022/03/01 22:34:53;;;;;;;10.80;3.57;;;;;;;;;;10285408;28;20070;-69
2022/03/01 22:39:56;;;;;;;10.20;4.25;;;;;;;;;;10269068;28;20043;-71
2022/03/01 22:45:00;;;;;;;13.73;3.60;;;;;;;;;;10262521;28;20090;-70
2022/03/01 22:50:04;;;;;;;7.33;3.00;;;;;;;;;;10274980;28;20306;-69
2022/03/01 22:55:08;;;;;;;3.80;1.77;;;;;;;;;;10278876;28;20125;-69
2022/03/01 23:00:32;;;;;;;4.60;2.42;;;;;;;;;;10275914;28;20109;-69
2022/03/01 23:05:38;;;;;;;4.00;2.23;;;;;;;;;;10273257;28;20109;-70
2022/03/01 23:10:41;;;;;;;3.30;1.27;;;;;;;;;;10276247;28;20070;-69
2022/03/01 23:15:44;;;;;;;12.53;3.83;;;;;;;;;;10273514;28;20039;-69
2022/03/01 23:20:49;;;;;;;11.07;3.63;;;;;;;;;;10274975;28;20049;-68
2022/03/01 23:25:52;;;;;;;11.88;3.85;;;;;;;;;;10270625;28;20306;-69
2022/03/01 23:30:57;;;;;;;5.53;3.43;;;;;;;;;;10273998;28;20113;-69
2022/03/01 23:36:02;;;;;;;9.30;3.73;;;;;;;;;;10264313;28;20415;-69
2022/03/01 23:41:05;;;;;;;6.53;3.20;;;;;;;;;;10266463;28;20038;-69
2022/03/01 23:46:09;;;;;;;13.37;4.37;;;;;;;;;;10255507;28;20089;-70
2022/03/01 23:51:13;;;;;;;6.97;3.40;;;;;;;;;;10270400;28;20043;-69
2022/03/01 23:56:16;;;;;;;8.45;3.75;;;;;;;;;;10280997;23;20431;-70
